Neola, Iowa
Current Conditions -  °F | °C
As of 7:35 AM on Friday 24 Oct 2014 (Local Time) from KCBF Reporting Station
Haze Haze  
Wind Chill: 59°   Ceiling: 400
Heat Index: 59°   Visibility: 3mi
Dew Point: 59°   Wind: 13mph
Humidity: 100%   Direction: 190°S
Pressure: 29.93"   Gusts: NA
Location:  41.45°N, 95.62°W
Report Text: KCBF 241235Z AUTO 19011KT 3SM BR OVC004 15/15 A2993 RMK AO2
Loading
Personal Weather Stations






























Interactive Weather Map
Tropical Storm Tracking
New forecast layout! Learn more

10-Day Weather Forecast

Advertisements
Track Severe Weather on mobile